sensor_id;sensor_type;location;lat;lon;timestamp;temperature;humidity
29345;DHT22;16339;48.748;2.222;2023-05-09T00:01:57;20.10;93.60
29345;DHT22;16339;48.748;2.222;2023-05-09T00:04:26;20.10;93.70
29345;DHT22;16339;48.748;2.222;2023-05-09T00:06:54;20.00;93.20
29345;DHT22;16339;48.748;2.222;2023-05-09T00:09:24;20.00;93.30
29345;DHT22;16339;48.748;2.222;2023-05-09T00:11:54;20.00;93.30
29345;DHT22;16339;48.748;2.222;2023-05-09T00:14:25;20.00;93.20
29345;DHT22;16339;48.748;2.222;2023-05-09T00:16:54;20.00;93.20
29345;DHT22;16339;48.748;2.222;2023-05-09T00:19:24;20.10;93.40
29345;DHT22;16339;48.748;2.222;2023-05-09T00:21:53;20.00;93.40
29345;DHT22;16339;48.748;2.222;2023-05-09T00:24:22;20.00;93.40
29345;DHT22;16339;48.748;2.222;2023-05-09T00:26:50;20.00;93.30
29345;DHT22;16339;48.748;2.222;2023-05-09T00:29:19;20.10;93.40
29345;DHT22;16339;48.748;2.222;2023-05-09T00:31:51;20.00;93.20
29345;DHT22;16339;48.748;2.222;2023-05-09T00:34:19;20.10;93.00
29345;DHT22;16339;48.748;2.222;2023-05-09T00:36:48;20.10;93.00
29345;DHT22;16339;48.748;2.222;2023-05-09T00:39:17;20.10;93.00
29345;DHT22;16339;48.748;2.222;2023-05-09T00:41:45;20.00;92.40
29345;DHT22;16339;48.748;2.222;2023-05-09T00:44:14;20.00;92.40
29345;DHT22;16339;48.748;2.222;2023-05-09T00:46:43;20.00;92.50
29345;DHT22;16339;48.748;2.222;2023-05-09T00:49:14;20.00;92.70
29345;DHT22;16339;48.748;2.222;2023-05-09T00:51:46;20.00;92.70
29345;DHT22;16339;48.748;2.222;2023-05-09T00:54:15;20.00;92.70
29345;DHT22;16339;48.748;2.222;2023-05-09T00:56:44;20.00;92.80
29345;DHT22;16339;48.748;2.222;2023-05-09T00:59:13;20.00;93.30
29345;DHT22;16339;48.748;2.222;2023-05-09T01:01:42;20.00;92.80
29345;DHT22;16339;48.748;2.222;2023-05-09T01:04:14;20.00;92.70
29345;DHT22;16339;48.748;2.222;2023-05-09T01:06:48;20.00;92.70
29345;DHT22;16339;48.748;2.222;2023-05-09T01:09:23;19.90;92.70
29345;DHT22;16339;48.748;2.222;2023-05-09T01:12:01;19.90;92.70
29345;DHT22;16339;48.748;2.222;2023-05-09T01:14:37;19.90;92.50
29345;DHT22;16339;48.748;2.222;2023-05-09T01:17:11;19.90;92.60
29345;DHT22;16339;48.748;2.222;2023-05-09T01:19:58;19.90;92.70
29345;DHT22;16339;48.748;2.222;2023-05-09T01:22:32;19.80;92.60
29345;DHT22;16339;48.748;2.222;2023-05-09T01:28:10;19.80;92.20
29345;DHT22;16339;48.748;2.222;2023-05-09T01:30:45;19.70;92.40
29345;DHT22;16339;48.748;2.222;2023-05-09T01:33:17;19.70;92.50
29345;DHT22;16339;48.748;2.222;2023-05-09T01:35:58;19.70;92.50
29345;DHT22;16339;48.748;2.222;2023-05-09T01:38:30;19.70;92.60
29345;DHT22;16339;48.748;2.222;2023-05-09T01:40:59;19.70;92.60
29345;DHT22;16339;48.748;2.222;2023-05-09T01:43:32;19.70;93.00
29345;DHT22;16339;48.748;2.222;2023-05-09T01:46:04;19.70;92.50
29345;DHT22;16339;48.748;2.222;2023-05-09T01:48:34;19.70;92.30
29345;DHT22;16339;48.748;2.222;2023-05-09T01:51:03;19.70;92.40
29345;DHT22;16339;48.748;2.222;2023-05-09T01:53:33;19.70;92.30
29345;DHT22;16339;48.748;2.222;2023-05-09T01:56:04;19.70;92.50
29345;DHT22;16339;48.748;2.222;2023-05-09T01:58:33;19.60;92.50
29345;DHT22;16339;48.748;2.222;2023-05-09T02:01:04;19.70;92.50
29345;DHT22;16339;48.748;2.222;2023-05-09T02:03:33;19.60;92.70
29345;DHT22;16339;48.748;2.222;2023-05-09T02:06:04;19.80;92.70
29345;DHT22;16339;48.748;2.222;2023-05-09T02:08:35;19.80;92.50
29345;DHT22;16339;48.748;2.222;2023-05-09T02:11:05;19.70;92.30
29345;DHT22;16339;48.748;2.222;2023-05-09T02:13:34;19.70;92.10
29345;DHT22;16339;48.748;2.222;2023-05-09T02:16:06;19.70;92.20
29345;DHT22;16339;48.748;2.222;2023-05-09T02:18:37;19.70;92.10
29345;DHT22;16339;48.748;2.222;2023-05-09T02:21:06;19.70;92.10
29345;DHT22;16339;48.748;2.222;2023-05-09T02:23:35;19.70;92.00
29345;DHT22;16339;48.748;2.222;2023-05-09T02:26:04;19.70;92.00
29345;DHT22;16339;48.748;2.222;2023-05-09T02:28:34;19.70;92.00
29345;DHT22;16339;48.748;2.222;2023-05-09T02:31:07;19.70;91.90
29345;DHT22;16339;48.748;2.222;2023-05-09T02:33:37;19.70;91.80
29345;DHT22;16339;48.748;2.222;2023-05-09T02:36:10;19.70;91.80
29345;DHT22;16339;48.748;2.222;2023-05-09T02:38:40;19.70;91.90
29345;DHT22;16339;48.748;2.222;2023-05-09T02:41:12;19.70;91.90
29345;DHT22;16339;48.748;2.222;2023-05-09T02:43:41;19.80;92.00
29345;DHT22;16339;48.748;2.222;2023-05-09T02:46:12;19.70;91.80
29345;DHT22;16339;48.748;2.222;2023-05-09T02:48:41;19.70;92.00
29345;DHT22;16339;48.748;2.222;2023-05-09T02:51:10;19.70;92.10
29345;DHT22;16339;48.748;2.222;2023-05-09T02:53:38;19.70;92.20
29345;DHT22;16339;48.748;2.222;2023-05-09T02:56:07;19.70;92.50
29345;DHT22;16339;48.748;2.222;2023-05-09T02:58:36;19.70;92.60
29345;DHT22;16339;48.748;2.222;2023-05-09T03:01:05;19.70;92.60
29345;DHT22;16339;48.748;2.222;2023-05-09T03:03:36;19.70;92.60
29345;DHT22;16339;48.748;2.222;2023-05-09T03:06:05;19.60;92.80
29345;DHT22;16339;48.748;2.222;2023-05-09T03:08:34;19.60;92.90
29345;DHT22;16339;48.748;2.222;2023-05-09T03:11:02;19.50;92.60
29345;DHT22;16339;48.748;2.222;2023-05-09T03:13:31;19.40;92.70
29345;DHT22;16339;48.748;2.222;2023-05-09T03:16:00;19.30;93.00
29345;DHT22;16339;48.748;2.222;2023-05-09T03:18:29;19.40;93.00
29345;DHT22;16339;48.748;2.222;2023-05-09T03:21:00;19.20;93.10
29345;DHT22;16339;48.748;2.222;2023-05-09T03:23:29;19.20;93.30
29345;DHT22;16339;48.748;2.222;2023-05-09T03:25:57;19.20;93.50
29345;DHT22;16339;48.748;2.222;2023-05-09T03:28:27;19.20;93.40
29345;DHT22;16339;48.748;2.222;2023-05-09T03:30:55;19.10;93.20
29345;DHT22;16339;48.748;2.222;2023-05-09T03:33:24;19.10;93.40
29345;DHT22;16339;48.748;2.222;2023-05-09T03:35:53;19.10;93.40
29345;DHT22;16339;48.748;2.222;2023-05-09T03:38:24;19.10;93.50
29345;DHT22;16339;48.748;2.222;2023-05-09T03:40:53;19.00;93.60
29345;DHT22;16339;48.748;2.222;2023-05-09T03:43:22;18.80;93.30
29345;DHT22;16339;48.748;2.222;2023-05-09T03:45:51;18.90;93.60
29345;DHT22;16339;48.748;2.222;2023-05-09T03:48:19;18.90;93.60
29345;DHT22;16339;48.748;2.222;2023-05-09T03:50:48;18.90;93.50
29345;DHT22;16339;48.748;2.222;2023-05-09T03:53:17;18.80;93.40
29345;DHT22;16339;48.748;2.222;2023-05-09T03:55:48;18.70;93.10
29345;DHT22;16339;48.748;2.222;2023-05-09T03:58:19;18.60;93.00
29345;DHT22;16339;48.748;2.222;2023-05-09T04:00:48;18.50;93.20
29345;DHT22;16339;48.748;2.222;2023-05-09T04:03:17;18.50;93.70
29345;DHT22;16339;48.748;2.222;2023-05-09T04:05:45;18.50;93.20
29345;DHT22;16339;48.748;2.222;2023-05-09T04:08:14;18.40;92.70
29345;DHT22;16339;48.748;2.222;2023-05-09T04:10:47;18.20;92.00
29345;DHT22;16339;48.748;2.222;2023-05-09T04:13:17;18.20;92.00
29345;DHT22;16339;48.748;2.222;2023-05-09T04:15:45;18.30;92.50
29345;DHT22;16339;48.748;2.222;2023-05-09T04:18:14;18.30;91.90
29345;DHT22;16339;48.748;2.222;2023-05-09T04:20:45;18.10;91.20
29345;DHT22;16339;48.748;2.222;2023-05-09T04:23:14;18.20;92.00
29345;DHT22;16339;48.748;2.222;2023-05-09T04:25:43;18.20;91.80
29345;DHT22;16339;48.748;2.222;2023-05-09T04:28:14;18.20;91.70
29345;DHT22;16339;48.748;2.222;2023-05-09T04:30:42;18.20;91.80
29345;DHT22;16339;48.748;2.222;2023-05-09T04:33:11;18.30;92.00
29345;DHT22;16339;48.748;2.222;2023-05-09T04:35:40;18.30;92.80
29345;DHT22;16339;48.748;2.222;2023-05-09T04:38:09;18.40;93.20
29345;DHT22;16339;48.748;2.222;2023-05-09T04:40:37;18.40;93.60
29345;DHT22;16339;48.748;2.222;2023-05-09T04:43:06;18.40;93.10
29345;DHT22;16339;48.748;2.222;2023-05-09T04:45:37;18.50;93.30
29345;DHT22;16339;48.748;2.222;2023-05-09T04:48:08;18.50;93.40
29345;DHT22;16339;48.748;2.222;2023-05-09T04:50:36;18.50;93.30
29345;DHT22;16339;48.748;2.222;2023-05-09T04:53:05;18.50;92.90
29345;DHT22;16339;48.748;2.222;2023-05-09T04:55:34;18.50;93.00
29345;DHT22;16339;48.748;2.222;2023-05-09T04:58:02;18.50;93.30
29345;DHT22;16339;48.748;2.222;2023-05-09T05:00:31;18.60;93.30
29345;DHT22;16339;48.748;2.222;2023-05-09T05:03:03;18.60;93.50
29345;DHT22;16339;48.748;2.222;2023-05-09T05:05:31;18.60;93.70
29345;DHT22;16339;48.748;2.222;2023-05-09T05:08:00;18.60;93.40
29345;DHT22;16339;48.748;2.222;2023-05-09T05:10:29;18.60;93.50
29345;DHT22;16339;48.748;2.222;2023-05-09T05:12:57;18.60;93.40
29345;DHT22;16339;48.748;2.222;2023-05-09T05:15:26;18.60;93.40
29345;DHT22;16339;48.748;2.222;2023-05-09T05:17:55;18.60;93.40
29345;DHT22;16339;48.748;2.222;2023-05-09T05:20:26;18.60;93.70
29345;DHT22;16339;48.748;2.222;2023-05-09T05:22:55;18.60;93.60
29345;DHT22;16339;48.748;2.222;2023-05-09T05:25:23;18.60;93.50
29345;DHT22;16339;48.748;2.222;2023-05-09T05:27:52;18.60;93.60
29345;DHT22;16339;48.748;2.222;2023-05-09T05:30:21;18.60;93.80
29345;DHT22;16339;48.748;2.222;2023-05-09T05:32:49;18.60;93.80
29345;DHT22;16339;48.748;2.222;2023-05-09T05:35:20;18.60;93.70
29345;DHT22;16339;48.748;2.222;2023-05-09T05:37:52;18.60;93.50
29345;DHT22;16339;48.748;2.222;2023-05-09T05:40:20;18.60;93.40
29345;DHT22;16339;48.748;2.222;2023-05-09T05:42:49;18.60;93.50
29345;DHT22;16339;48.748;2.222;2023-05-09T05:45:18;18.50;93.50
29345;DHT22;16339;48.748;2.222;2023-05-09T05:47:46;18.50;93.70
29345;DHT22;16339;48.748;2.222;2023-05-09T05:50:15;18.50;93.80
29345;DHT22;16339;48.748;2.222;2023-05-09T05:52:44;18.60;93.80
29345;DHT22;16339;48.748;2.222;2023-05-09T05:55:15;18.60;93.80
29345;DHT22;16339;48.748;2.222;2023-05-09T05:57:44;18.60;93.70
29345;DHT22;16339;48.748;2.222;2023-05-09T06:00:14;18.60;93.20
29345;DHT22;16339;48.748;2.222;2023-05-09T06:02:43;18.60;93.30
29345;DHT22;16339;48.748;2.222;2023-05-09T06:05:12;18.60;93.00
29345;DHT22;16339;48.748;2.222;2023-05-09T06:07:41;18.50;93.40
29345;DHT22;16339;48.748;2.222;2023-05-09T06:10:10;18.50;93.40
29345;DHT22;16339;48.748;2.222;2023-05-09T06:12:43;18.50;93.50
29345;DHT22;16339;48.748;2.222;2023-05-09T06:15:11;18.50;93.70
29345;DHT22;16339;48.748;2.222;2023-05-09T06:17:40;18.50;93.70
29345;DHT22;16339;48.748;2.222;2023-05-09T06:20:09;18.50;94.00
29345;DHT22;16339;48.748;2.222;2023-05-09T06:22:38;18.50;93.90
29345;DHT22;16339;48.748;2.222;2023-05-09T06:25:08;18.60;93.90
29345;DHT22;16339;48.748;2.222;2023-05-09T06:27:39;18.60;93.80
29345;DHT22;16339;48.748;2.222;2023-05-09T06:30:13;18.60;93.60
29345;DHT22;16339;48.748;2.222;2023-05-09T06:32:42;18.50;93.50
29345;DHT22;16339;48.748;2.222;2023-05-09T06:35:10;18.50;94.10
29345;DHT22;16339;48.748;2.222;2023-05-09T06:37:40;18.50;93.70
29345;DHT22;16339;48.748;2.222;2023-05-09T06:40:09;18.50;93.70
29345;DHT22;16339;48.748;2.222;2023-05-09T06:42:39;18.50;93.80
29345;DHT22;16339;48.748;2.222;2023-05-09T06:45:11;18.60;93.70
29345;DHT22;16339;48.748;2.222;2023-05-09T06:47:40;18.50;93.50
29345;DHT22;16339;48.748;2.222;2023-05-09T06:50:09;18.50;93.80
29345;DHT22;16339;48.748;2.222;2023-05-09T06:52:37;18.50;93.80
29345;DHT22;16339;48.748;2.222;2023-05-09T06:55:08;18.50;93.80
29345;DHT22;16339;48.748;2.222;2023-05-09T06:57:39;18.50;93.80
29345;DHT22;16339;48.748;2.222;2023-05-09T07:00:12;18.50;93.90
29345;DHT22;16339;48.748;2.222;2023-05-09T07:02:41;18.40;94.10
29345;DHT22;16339;48.748;2.222;2023-05-09T07:05:09;18.50;93.80
29345;DHT22;16339;48.748;2.222;2023-05-09T07:07:39;18.40;93.90
29345;DHT22;16339;48.748;2.222;2023-05-09T07:10:10;18.40;94.20
29345;DHT22;16339;48.748;2.222;2023-05-09T07:12:38;18.40;94.10
29345;DHT22;16339;48.748;2.222;2023-05-09T07:15:11;18.50;94.20
29345;DHT22;16339;48.748;2.222;2023-05-09T07:17:39;18.40;94.20
29345;DHT22;16339;48.748;2.222;2023-05-09T07:20:09;18.40;94.00
29345;DHT22;16339;48.748;2.222;2023-05-09T07:22:38;18.50;94.10
29345;DHT22;16339;48.748;2.222;2023-05-09T07:25:08;18.50;94.30
29345;DHT22;16339;48.748;2.222;2023-05-09T07:27:37;18.50;94.00
29345;DHT22;16339;48.748;2.222;2023-05-09T07:30:07;18.50;94.10
29345;DHT22;16339;48.748;2.222;2023-05-09T07:32:39;18.50;93.90
29345;DHT22;16339;48.748;2.222;2023-05-09T07:35:07;18.50;93.80
29345;DHT22;16339;48.748;2.222;2023-05-09T07:37:36;18.60;93.90
29345;DHT22;16339;48.748;2.222;2023-05-09T07:40:06;18.60;93.90
29345;DHT22;16339;48.748;2.222;2023-05-09T07:42:35;18.70;94.00
29345;DHT22;16339;48.748;2.222;2023-05-09T07:45:05;18.70;93.90
29345;DHT22;16339;48.748;2.222;2023-05-09T07:47:38;18.80;94.10
29345;DHT22;16339;48.748;2.222;2023-05-09T07:50:07;18.80;94.00
29345;DHT22;16339;48.748;2.222;2023-05-09T07:52:36;18.80;93.60
29345;DHT22;16339;48.748;2.222;2023-05-09T07:55:05;18.80;93.60
29345;DHT22;16339;48.748;2.222;2023-05-09T07:57:34;18.80;93.70
29345;DHT22;16339;48.748;2.222;2023-05-09T08:00:05;18.80;93.90
29345;DHT22;16339;48.748;2.222;2023-05-09T08:02:37;18.80;94.10
29345;DHT22;16339;48.748;2.222;2023-05-09T08:05:07;18.80;93.80
29345;DHT22;16339;48.748;2.222;2023-05-09T08:07:38;18.90;94.00
29345;DHT22;16339;48.748;2.222;2023-05-09T08:10:08;18.80;94.10
29345;DHT22;16339;48.748;2.222;2023-05-09T08:12:37;18.80;94.00
29345;DHT22;16339;48.748;2.222;2023-05-09T08:15:09;18.50;92.80
29345;DHT22;16339;48.748;2.222;2023-05-09T08:17:41;18.50;93.70
29345;DHT22;16339;48.748;2.222;2023-05-09T08:20:11;18.40;93.30
29345;DHT22;16339;48.748;2.222;2023-05-09T08:22:40;18.40;93.40
29345;DHT22;16339;48.748;2.222;2023-05-09T08:25:09;18.50;94.00
29345;DHT22;16339;48.748;2.222;2023-05-09T08:27:40;18.40;93.50
29345;DHT22;16339;48.748;2.222;2023-05-09T08:30:10;18.50;93.50
29345;DHT22;16339;48.748;2.222;2023-05-09T08:32:42;18.30;93.30
29345;DHT22;16339;48.748;2.222;2023-05-09T08:35:10;18.30;93.30
29345;DHT22;16339;48.748;2.222;2023-05-09T08:37:39;18.40;94.10
29345;DHT22;16339;48.748;2.222;2023-05-09T08:40:09;18.40;94.00
29345;DHT22;16339;48.748;2.222;2023-05-09T08:42:38;18.40;93.90
29345;DHT22;16339;48.748;2.222;2023-05-09T08:45:09;18.40;94.00
29345;DHT22;16339;48.748;2.222;2023-05-09T08:47:42;18.50;94.10
29345;DHT22;16339;48.748;2.222;2023-05-09T08:50:11;18.50;94.10
29345;DHT22;16339;48.748;2.222;2023-05-09T08:52:42;18.60;94.40
29345;DHT22;16339;48.748;2.222;2023-05-09T08:55:10;18.60;94.20
29345;DHT22;16339;48.748;2.222;2023-05-09T08:57:39;18.50;94.10
29345;DHT22;16339;48.748;2.222;2023-05-09T09:00:11;18.60;94.70
29345;DHT22;16339;48.748;2.222;2023-05-09T09:02:42;18.30;93.80
29345;DHT22;16339;48.748;2.222;2023-05-09T09:05:11;18.30;94.00
29345;DHT22;16339;48.748;2.222;2023-05-09T09:07:40;18.30;94.70
29345;DHT22;16339;48.748;2.222;2023-05-09T09:10:12;18.40;95.00
29345;DHT22;16339;48.748;2.222;2023-05-09T09:12:48;18.40;94.80
29345;DHT22;16339;48.748;2.222;2023-05-09T09:15:18;18.40;94.80
29345;DHT22;16339;48.748;2.222;2023-05-09T09:17:56;18.40;94.70
29345;DHT22;16339;48.748;2.222;2023-05-09T09:20:30;18.20;93.90
29345;DHT22;16339;48.748;2.222;2023-05-09T09:22:59;18.20;94.70
29345;DHT22;16339;48.748;2.222;2023-05-09T09:25:34;18.20;94.80
29345;DHT22;16339;48.748;2.222;2023-05-09T09:28:05;18.10;94.60
29345;DHT22;16339;48.748;2.222;2023-05-09T09:30:34;18.10;94.80
29345;DHT22;16339;48.748;2.222;2023-05-09T09:33:08;18.20;95.20
29345;DHT22;16339;48.748;2.222;2023-05-09T09:35:41;18.20;95.20
29345;DHT22;16339;48.748;2.222;2023-05-09T09:38:17;18.20;95.10
29345;DHT22;16339;48.748;2.222;2023-05-09T09:40:54;18.20;94.70
29345;DHT22;16339;48.748;2.222;2023-05-09T09:43:30;18.00;94.70
29345;DHT22;16339;48.748;2.222;2023-05-09T09:46:02;18.00;95.00
29345;DHT22;16339;48.748;2.222;2023-05-09T09:48:34;18.00;95.40
29345;DHT22;16339;48.748;2.222;2023-05-09T09:51:09;18.00;95.70
29345;DHT22;16339;48.748;2.222;2023-05-09T09:53:39;17.90;95.10
29345;DHT22;16339;48.748;2.222;2023-05-09T09:56:10;17.90;95.20
29345;DHT22;16339;48.748;2.222;2023-05-09T09:58:42;17.80;95.40
29345;DHT22;16339;48.748;2.222;2023-05-09T10:01:11;17.80;95.60
29345;DHT22;16339;48.748;2.222;2023-05-09T10:03:44;17.80;95.70
29345;DHT22;16339;48.748;2.222;2023-05-09T10:06:14;17.90;95.90
29345;DHT22;16339;48.748;2.222;2023-05-09T10:08:45;17.90;95.80
29345;DHT22;16339;48.748;2.222;2023-05-09T10:11:14;17.90;95.80
29345;DHT22;16339;48.748;2.222;2023-05-09T10:13:44;17.90;95.80
29345;DHT22;16339;48.748;2.222;2023-05-09T10:16:14;17.70;95.80
29345;DHT22;16339;48.748;2.222;2023-05-09T10:18:45;17.70;95.90
29345;DHT22;16339;48.748;2.222;2023-05-09T10:21:14;17.70;96.00
29345;DHT22;16339;48.748;2.222;2023-05-09T10:23:45;17.70;96.00
29345;DHT22;16339;48.748;2.222;2023-05-09T10:26:19;17.70;96.80
29345;DHT22;16339;48.748;2.222;2023-05-09T10:28:54;17.80;96.50
29345;DHT22;16339;48.748;2.222;2023-05-09T10:31:25;17.90;96.80
29345;DHT22;16339;48.748;2.222;2023-05-09T10:34:01;17.90;96.90
29345;DHT22;16339;48.748;2.222;2023-05-09T10:36:32;18.00;97.20
29345;DHT22;16339;48.748;2.222;2023-05-09T10:39:04;18.10;97.10
29345;DHT22;16339;48.748;2.222;2023-05-09T10:41:35;18.00;96.50
29345;DHT22;16339;48.748;2.222;2023-05-09T10:44:04;18.00;96.20
29345;DHT22;16339;48.748;2.222;2023-05-09T10:46:33;18.10;96.60
29345;DHT22;16339;48.748;2.222;2023-05-09T10:49:06;17.90;96.70
29345;DHT22;16339;48.748;2.222;2023-05-09T10:51:35;18.00;97.20
29345;DHT22;16339;48.748;2.222;2023-05-09T10:54:12;18.10;97.50
29345;DHT22;16339;48.748;2.222;2023-05-09T10:56:43;18.20;97.90
29345;DHT22;16339;48.748;2.222;2023-05-09T10:59:36;18.30;97.60
29345;DHT22;16339;48.748;2.222;2023-05-09T11:02:06;18.30;97.10
29345;DHT22;16339;48.748;2.222;2023-05-09T11:04:41;18.30;96.60
29345;DHT22;16339;48.748;2.222;2023-05-09T11:07:22;18.30;97.20
29345;DHT22;16339;48.748;2.222;2023-05-09T11:09:52;18.40;97.00
29345;DHT22;16339;48.748;2.222;2023-05-09T11:12:34;18.40;96.70
29345;DHT22;16339;48.748;2.222;2023-05-09T11:15:19;18.40;96.80
29345;DHT22;16339;48.748;2.222;2023-05-09T11:17:51;18.40;96.70
29345;DHT22;16339;48.748;2.222;2023-05-09T11:20:41;18.30;96.50
29345;DHT22;16339;48.748;2.222;2023-05-09T11:23:10;18.10;97.00
29345;DHT22;16339;48.748;2.222;2023-05-09T11:25:45;18.10;96.40
29345;DHT22;16339;48.748;2.222;2023-05-09T11:28:25;18.10;96.80
29345;DHT22;16339;48.748;2.222;2023-05-09T11:31:08;17.80;96.80
29345;DHT22;16339;48.748;2.222;2023-05-09T11:33:38;17.90;97.20
29345;DHT22;16339;48.748;2.222;2023-05-09T11:36:20;17.90;97.20
29345;DHT22;16339;48.748;2.222;2023-05-09T11:39:04;18.00;97.70
29345;DHT22;16339;48.748;2.222;2023-05-09T11:41:40;18.00;97.20
29345;DHT22;16339;48.748;2.222;2023-05-09T11:44:15;18.10;97.30
29345;DHT22;16339;48.748;2.222;2023-05-09T11:46:50;17.80;97.00
29345;DHT22;16339;48.748;2.222;2023-05-09T11:49:18;18.10;97.70
29345;DHT22;16339;48.748;2.222;2023-05-09T11:51:50;18.20;98.00
29345;DHT22;16339;48.748;2.222;2023-05-09T11:54:18;18.30;97.60
29345;DHT22;16339;48.748;2.222;2023-05-09T11:56:47;18.40;97.10
29345;DHT22;16339;48.748;2.222;2023-05-09T11:59:16;18.40;97.30
29345;DHT22;16339;48.748;2.222;2023-05-09T12:01:45;18.50;97.40
29345;DHT22;16339;48.748;2.222;2023-05-09T12:04:13;18.40;97.30
29345;DHT22;16339;48.748;2.222;2023-05-09T12:06:49;18.50;97.20
29345;DHT22;16339;48.748;2.222;2023-05-09T12:09:17;18.50;97.00
29345;DHT22;16339;48.748;2.222;2023-05-09T12:11:47;18.40;97.30
29345;DHT22;16339;48.748;2.222;2023-05-09T12:14:25;18.50;97.60
29345;DHT22;16339;48.748;2.222;2023-05-09T12:16:54;18.50;97.50
29345;DHT22;16339;48.748;2.222;2023-05-09T12:19:24;18.50;97.30
29345;DHT22;16339;48.748;2.222;2023-05-09T12:22:00;18.60;97.60
29345;DHT22;16339;48.748;2.222;2023-05-09T12:24:30;18.60;97.40
29345;DHT22;16339;48.748;2.222;2023-05-09T12:26:59;18.60;97.00
29345;DHT22;16339;48.748;2.222;2023-05-09T12:29:28;18.60;97.00
29345;DHT22;16339;48.748;2.222;2023-05-09T12:31:57;18.40;97.30
29345;DHT22;16339;48.748;2.222;2023-05-09T12:34:26;18.40;97.60
29345;DHT22;16339;48.748;2.222;2023-05-09T12:36:57;18.30;97.60
29345;DHT22;16339;48.748;2.222;2023-05-09T12:39:30;18.20;97.80
29345;DHT22;16339;48.748;2.222;2023-05-09T12:41:59;18.30;97.90
29345;DHT22;16339;48.748;2.222;2023-05-09T12:44:28;18.20;98.30
29345;DHT22;16339;48.748;2.222;2023-05-09T12:47:01;18.20;98.10
29345;DHT22;16339;48.748;2.222;2023-05-09T12:49:31;18.30;98.30
29345;DHT22;16339;48.748;2.222;2023-05-09T12:52:04;18.20;98.10
29345;DHT22;16339;48.748;2.222;2023-05-09T12:54:32;18.30;98.30
29345;DHT22;16339;48.748;2.222;2023-05-09T12:57:02;18.30;98.10
29345;DHT22;16339;48.748;2.222;2023-05-09T12:59:31;18.30;98.20
29345;DHT22;16339;48.748;2.222;2023-05-09T13:02:00;18.40;98.60
29345;DHT22;16339;48.748;2.222;2023-05-09T13:04:31;18.40;98.10
29345;DHT22;16339;48.748;2.222;2023-05-09T13:07:12;18.30;98.20
29345;DHT22;16339;48.748;2.222;2023-05-09T13:09:57;18.50;98.50
29345;DHT22;16339;48.748;2.222;2023-05-09T13:12:26;18.30;97.50
29345;DHT22;16339;48.748;2.222;2023-05-09T13:14:59;18.40;97.90
29345;DHT22;16339;48.748;2.222;2023-05-09T13:21:41;18.30;98.00
29345;DHT22;16339;48.748;2.222;2023-05-09T13:27:24;18.30;98.20
29345;DHT22;16339;48.748;2.222;2023-05-09T13:30:06;18.40;98.60
29345;DHT22;16339;48.748;2.222;2023-05-09T13:32:51;18.40;98.50
29345;DHT22;16339;48.748;2.222;2023-05-09T13:35:29;18.70;98.00
29345;DHT22;16339;48.748;2.222;2023-05-09T13:38:04;18.90;98.10
29345;DHT22;16339;48.748;2.222;2023-05-09T13:43:38;19.30;97.60
29345;DHT22;16339;48.748;2.222;2023-05-09T13:46:18;19.10;96.40
29345;DHT22;16339;48.748;2.222;2023-05-09T13:48:50;19.20;96.70
29345;DHT22;16339;48.748;2.222;2023-05-09T13:51:48;19.40;97.10
29345;DHT22;16339;48.748;2.222;2023-05-09T13:54:18;19.40;96.50
29345;DHT22;16339;48.748;2.222;2023-05-09T13:57:11;19.60;96.40
29345;DHT22;16339;48.748;2.222;2023-05-09T13:59:57;19.60;96.30
29345;DHT22;16339;48.748;2.222;2023-05-09T14:02:53;19.60;95.70
29345;DHT22;16339;48.748;2.222;2023-05-09T14:05:33;19.50;96.30
29345;DHT22;16339;48.748;2.222;2023-05-09T14:08:14;19.50;95.80
29345;DHT22;16339;48.748;2.222;2023-05-09T14:10:52;19.30;96.30
29345;DHT22;16339;48.748;2.222;2023-05-09T14:13:41;19.40;96.90
29345;DHT22;16339;48.748;2.222;2023-05-09T14:16:38;19.10;97.60
29345;DHT22;16339;48.748;2.222;2023-05-09T14:19:34;18.60;97.90
29345;DHT22;16339;48.748;2.222;2023-05-09T14:22:03;18.80;98.30
29345;DHT22;16339;48.748;2.222;2023-05-09T14:24:37;18.80;97.70
29345;DHT22;16339;48.748;2.222;2023-05-09T14:27:12;18.90;98.20
29345;DHT22;16339;48.748;2.222;2023-05-09T14:30:02;19.00;98.80
29345;DHT22;16339;48.748;2.222;2023-05-09T14:33:18;19.10;99.00
29345;DHT22;16339;48.748;2.222;2023-05-09T14:35:52;19.10;99.70
29345;DHT22;16339;48.748;2.222;2023-05-09T14:38:34;19.40;99.90
29345;DHT22;16339;48.748;2.222;2023-05-09T14:44:15;19.60;98.60
29345;DHT22;16339;48.748;2.222;2023-05-09T14:47:17;19.60;98.20
29345;DHT22;16339;48.748;2.222;2023-05-09T14:50:08;19.70;98.30
29345;DHT22;16339;48.748;2.222;2023-05-09T14:53:21;19.70;96.80
29345;DHT22;16339;48.748;2.222;2023-05-09T14:56:17;19.70;96.00
29345;DHT22;16339;48.748;2.222;2023-05-09T14:59:39;19.90;96.30
29345;DHT22;16339;48.748;2.222;2023-05-09T15:02:30;19.90;95.10
29345;DHT22;16339;48.748;2.222;2023-05-09T15:05:17;19.90;95.90
29345;DHT22;16339;48.748;2.222;2023-05-09T15:08:20;20.00;95.30
29345;DHT22;16339;48.748;2.222;2023-05-09T15:11:01;20.00;93.90
29345;DHT22;16339;48.748;2.222;2023-05-09T15:13:58;20.20;94.20
29345;DHT22;16339;48.748;2.222;2023-05-09T15:16:51;20.10;94.70
29345;DHT22;16339;48.748;2.222;2023-05-09T15:22:22;20.10;94.30
29345;DHT22;16339;48.748;2.222;2023-05-09T15:25:19;19.90;94.00
29345;DHT22;16339;48.748;2.222;2023-05-09T15:27:58;20.00;94.10
29345;DHT22;16339;48.748;2.222;2023-05-09T15:30:43;20.00;94.30
29345;DHT22;16339;48.748;2.222;2023-05-09T15:33:13;20.00;94.20
29345;DHT22;16339;48.748;2.222;2023-05-09T15:35:50;20.00;94.50
29345;DHT22;16339;48.748;2.222;2023-05-09T15:38:39;20.00;94.50
29345;DHT22;16339;48.748;2.222;2023-05-09T15:41:17;19.90;94.00
29345;DHT22;16339;48.748;2.222;2023-05-09T15:43:48;19.90;94.30
29345;DHT22;16339;48.748;2.222;2023-05-09T15:50:03;20.10;96.80
29345;DHT22;16339;48.748;2.222;2023-05-09T15:52:18;21.20;94.70
29345;DHT22;16339;48.748;2.222;2023-05-09T15:55:19;22.30;92.50
29345;DHT22;16339;48.748;2.222;2023-05-09T15:58:19;23.20;90.50
29345;DHT22;16339;48.748;2.222;2023-05-09T16:01:13;24.40;85.80
29345;DHT22;16339;48.748;2.222;2023-05-09T16:03:44;25.00;81.70
29345;DHT22;16339;48.748;2.222;2023-05-09T16:16:02;26.40;77.90
29345;DHT22;16339;48.748;2.222;2023-05-09T16:22:08;24.50;79.70
29345;DHT22;16339;48.748;2.222;2023-05-09T16:24:57;23.80;81.20
29345;DHT22;16339;48.748;2.222;2023-05-09T16:28:01;22.90;83.60
29345;DHT22;16339;48.748;2.222;2023-05-09T16:30:38;22.10;85.40
29345;DHT22;16339;48.748;2.222;2023-05-09T16:33:32;21.60;87.60
29345;DHT22;16339;48.748;2.222;2023-05-09T16:36:56;21.30;89.50
29345;DHT22;16339;48.748;2.222;2023-05-09T16:39:36;21.00;90.30
29345;DHT22;16339;48.748;2.222;2023-05-09T16:42:09;20.90;91.00
29345;DHT22;16339;48.748;2.222;2023-05-09T16:45:28;20.80;91.20